sensor_id;sensor_type;location;lat;lon;timestamp;P1;durP1;ratioP1;P2;durP2;ratioP2
60344;SDS011;46188;52.324;8.032;2023-03-16T00:00:48;8.15;;;3.15;;
60344;SDS011;46188;52.324;8.032;2023-03-16T00:03:13;5.00;;;3.38;;
60344;SDS011;46188;52.324;8.032;2023-03-16T00:05:47;4.85;;;3.03;;
60344;SDS011;46188;52.324;8.032;2023-03-16T00:08:17;7.88;;;3.17;;
60344;SDS011;46188;52.324;8.032;2023-03-16T00:10:43;6.72;;;3.30;;
60344;SDS011;46188;52.324;8.032;2023-03-16T00:13:16;5.10;;;2.55;;
60344;SDS011;46188;52.324;8.032;2023-03-16T00:15:51;7.63;;;3.45;;
60344;SDS011;46188;52.324;8.032;2023-03-16T00:18:21;8.88;;;4.07;;
60344;SDS011;46188;52.324;8.032;2023-03-16T00:21:00;4.90;;;3.15;;
60344;SDS011;46188;52.324;8.032;2023-03-16T00:23:27;7.30;;;2.75;;
60344;SDS011;46188;52.324;8.032;2023-03-16T00:25:53;6.00;;;3.03;;
60344;SDS011;46188;52.324;8.032;2023-03-16T00:28:19;6.93;;;3.42;;
60344;SDS011;46188;52.324;8.032;2023-03-16T00:30:45;5.93;;;2.85;;
60344;SDS011;46188;52.324;8.032;2023-03-16T00:33:12;7.70;;;3.13;;
60344;SDS011;46188;52.324;8.032;2023-03-16T00:35:37;6.35;;;2.95;;
60344;SDS011;46188;52.324;8.032;2023-03-16T00:38:02;6.25;;;2.72;;
60344;SDS011;46188;52.324;8.032;2023-03-16T00:40:28;8.35;;;2.90;;
60344;SDS011;46188;52.324;8.032;2023-03-16T00:42:54;8.18;;;3.08;;
60344;SDS011;46188;52.324;8.032;2023-03-16T00:45:19;6.22;;;3.72;;
60344;SDS011;46188;52.324;8.032;2023-03-16T00:47:44;4.72;;;2.90;;
60344;SDS011;46188;52.324;8.032;2023-03-16T00:50:10;6.85;;;3.50;;
60344;SDS011;46188;52.324;8.032;2023-03-16T00:52:35;6.63;;;2.83;;
60344;SDS011;46188;52.324;8.032;2023-03-16T00:55:00;5.47;;;2.53;;
60344;SDS011;46188;52.324;8.032;2023-03-16T00:57:28;9.25;;;3.30;;
60344;SDS011;46188;52.324;8.032;2023-03-16T00:59:54;8.50;;;3.15;;
60344;SDS011;46188;52.324;8.032;2023-03-16T01:02:20;7.28;;;3.20;;
60344;SDS011;46188;52.324;8.032;2023-03-16T01:04:48;7.72;;;3.20;;
60344;SDS011;46188;52.324;8.032;2023-03-16T01:07:15;5.68;;;3.53;;
60344;SDS011;46188;52.324;8.032;2023-03-16T01:09:41;6.53;;;3.15;;
60344;SDS011;46188;52.324;8.032;2023-03-16T01:12:08;8.50;;;3.38;;
60344;SDS011;46188;52.324;8.032;2023-03-16T01:14:36;7.03;;;3.33;;
60344;SDS011;46188;52.324;8.032;2023-03-16T01:17:02;7.47;;;3.40;;
60344;SDS011;46188;52.324;8.032;2023-03-16T01:19:30;6.80;;;3.15;;
60344;SDS011;46188;52.324;8.032;2023-03-16T01:21:59;5.05;;;3.05;;
60344;SDS011;46188;52.324;8.032;2023-03-16T01:24:25;6.20;;;3.70;;
60344;SDS011;46188;52.324;8.032;2023-03-16T01:26:51;7.10;;;3.05;;
60344;SDS011;46188;52.324;8.032;2023-03-16T01:29:16;5.95;;;3.40;;
60344;SDS011;46188;52.324;8.032;2023-03-16T01:31:42;5.75;;;3.00;;
60344;SDS011;46188;52.324;8.032;2023-03-16T01:34:07;5.72;;;3.08;;
60344;SDS011;46188;52.324;8.032;2023-03-16T01:36:32;5.43;;;3.88;;
60344;SDS011;46188;52.324;8.032;2023-03-16T01:38:58;10.82;;;3.92;;
60344;SDS011;46188;52.324;8.032;2023-03-16T01:41:24;8.38;;;3.45;;
60344;SDS011;46188;52.324;8.032;2023-03-16T01:43:51;9.32;;;3.35;;
60344;SDS011;46188;52.324;8.032;2023-03-16T01:46:24;8.75;;;3.83;;
60344;SDS011;46188;52.324;8.032;2023-03-16T01:51:34;6.13;;;3.67;;
60344;SDS011;46188;52.324;8.032;2023-03-16T01:54:09;8.27;;;3.83;;
60344;SDS011;46188;52.324;8.032;2023-03-16T01:56:44;7.13;;;3.20;;
60344;SDS011;46188;52.324;8.032;2023-03-16T01:59:22;5.90;;;3.67;;
60344;SDS011;46188;52.324;8.032;2023-03-16T02:01:54;7.70;;;3.63;;
60344;SDS011;46188;52.324;8.032;2023-03-16T02:07:12;5.63;;;3.03;;
60344;SDS011;46188;52.324;8.032;2023-03-16T02:09:41;10.20;;;4.10;;
60344;SDS011;46188;52.324;8.032;2023-03-16T02:12:10;9.93;;;4.10;;
60344;SDS011;46188;52.324;8.032;2023-03-16T02:14:41;7.78;;;4.28;;
60344;SDS011;46188;52.324;8.032;2023-03-16T02:17:08;4.38;;;3.33;;
60344;SDS011;46188;52.324;8.032;2023-03-16T02:19:36;12.35;;;3.97;;
60344;SDS011;46188;52.324;8.032;2023-03-16T02:22:04;12.18;;;3.88;;
60344;SDS011;46188;52.324;8.032;2023-03-16T02:24:31;7.93;;;3.92;;
60344;SDS011;46188;52.324;8.032;2023-03-16T02:27:01;6.95;;;3.70;;
60344;SDS011;46188;52.324;8.032;2023-03-16T02:29:43;5.70;;;3.28;;
60344;SDS011;46188;52.324;8.032;2023-03-16T02:32:18;7.35;;;3.22;;
60344;SDS011;46188;52.324;8.032;2023-03-16T02:34:45;6.55;;;4.03;;
60344;SDS011;46188;52.324;8.032;2023-03-16T02:37:10;5.03;;;3.05;;
60344;SDS011;46188;52.324;8.032;2023-03-16T02:39:36;4.72;;;2.67;;
60344;SDS011;46188;52.324;8.032;2023-03-16T02:42:01;7.47;;;3.28;;
60344;SDS011;46188;52.324;8.032;2023-03-16T02:44:30;7.18;;;2.95;;
60344;SDS011;46188;52.324;8.032;2023-03-16T02:47:00;6.40;;;3.00;;
60344;SDS011;46188;52.324;8.032;2023-03-16T02:49:34;6.88;;;3.28;;
60344;SDS011;46188;52.324;8.032;2023-03-16T02:52:02;5.78;;;2.92;;
60344;SDS011;46188;52.324;8.032;2023-03-16T02:54:29;5.10;;;3.20;;
60344;SDS011;46188;52.324;8.032;2023-03-16T02:56:54;5.82;;;3.10;;
60344;SDS011;46188;52.324;8.032;2023-03-16T02:59:20;8.77;;;3.05;;
60344;SDS011;46188;52.324;8.032;2023-03-16T03:01:45;5.85;;;3.10;;
60344;SDS011;46188;52.324;8.032;2023-03-16T03:04:10;5.95;;;3.30;;
60344;SDS011;46188;52.324;8.032;2023-03-16T03:06:35;7.55;;;3.25;;
60344;SDS011;46188;52.324;8.032;2023-03-16T03:09:01;6.00;;;3.08;;
60344;SDS011;46188;52.324;8.032;2023-03-16T03:11:27;5.40;;;3.60;;
60344;SDS011;46188;52.324;8.032;2023-03-16T03:13:53;5.97;;;3.03;;
60344;SDS011;46188;52.324;8.032;2023-03-16T03:16:19;6.28;;;3.17;;
60344;SDS011;46188;52.324;8.032;2023-03-16T03:18:45;9.15;;;3.13;;
60344;SDS011;46188;52.324;8.032;2023-03-16T03:21:11;5.45;;;3.15;;
60344;SDS011;46188;52.324;8.032;2023-03-16T03:23:36;4.78;;;2.97;;
60344;SDS011;46188;52.324;8.032;2023-03-16T03:26:01;4.10;;;2.50;;
60344;SDS011;46188;52.324;8.032;2023-03-16T03:28:28;7.53;;;3.28;;
60344;SDS011;46188;52.324;8.032;2023-03-16T03:30:53;5.13;;;2.88;;
60344;SDS011;46188;52.324;8.032;2023-03-16T03:33:19;5.22;;;3.08;;
60344;SDS011;46188;52.324;8.032;2023-03-16T03:35:46;7.43;;;2.83;;
60344;SDS011;46188;52.324;8.032;2023-03-16T03:38:17;6.15;;;2.85;;
60344;SDS011;46188;52.324;8.032;2023-03-16T03:40:42;5.30;;;2.60;;
60344;SDS011;46188;52.324;8.032;2023-03-16T03:43:07;4.90;;;2.55;;
60344;SDS011;46188;52.324;8.032;2023-03-16T03:45:32;4.43;;;2.72;;
60344;SDS011;46188;52.324;8.032;2023-03-16T03:47:58;6.50;;;2.65;;
60344;SDS011;46188;52.324;8.032;2023-03-16T03:50:23;6.88;;;2.67;;
60344;SDS011;46188;52.324;8.032;2023-03-16T03:52:48;6.38;;;2.90;;
60344;SDS011;46188;52.324;8.032;2023-03-16T03:55:14;5.43;;;2.95;;
60344;SDS011;46188;52.324;8.032;2023-03-16T03:57:39;6.97;;;2.55;;
60344;SDS011;46188;52.324;8.032;2023-03-16T04:00:05;4.35;;;2.50;;
60344;SDS011;46188;52.324;8.032;2023-03-16T04:02:35;7.55;;;2.67;;
60344;SDS011;46188;52.324;8.032;2023-03-16T04:05:02;6.18;;;2.70;;
60344;SDS011;46188;52.324;8.032;2023-03-16T04:07:27;7.53;;;2.70;;
60344;SDS011;46188;52.324;8.032;2023-03-16T04:09:52;4.50;;;2.40;;
60344;SDS011;46188;52.324;8.032;2023-03-16T04:12:17;7.30;;;2.85;;
60344;SDS011;46188;52.324;8.032;2023-03-16T04:14:43;6.32;;;2.38;;
60344;SDS011;46188;52.324;8.032;2023-03-16T04:17:08;6.28;;;2.72;;
60344;SDS011;46188;52.324;8.032;2023-03-16T04:19:33;6.55;;;2.60;;
60344;SDS011;46188;52.324;8.032;2023-03-16T04:21:58;5.07;;;2.50;;
60344;SDS011;46188;52.324;8.032;2023-03-16T04:24:24;5.30;;;2.38;;
60344;SDS011;46188;52.324;8.032;2023-03-16T04:26:49;4.78;;;2.42;;
60344;SDS011;46188;52.324;8.032;2023-03-16T04:29:15;9.25;;;2.40;;
60344;SDS011;46188;52.324;8.032;2023-03-16T04:31:43;7.97;;;2.47;;
60344;SDS011;46188;52.324;8.032;2023-03-16T04:34:09;3.42;;;2.10;;
60344;SDS011;46188;52.324;8.032;2023-03-16T04:36:38;3.75;;;2.40;;
60344;SDS011;46188;52.324;8.032;2023-03-16T04:39:04;4.65;;;2.20;;
60344;SDS011;46188;52.324;8.032;2023-03-16T04:41:30;7.05;;;2.10;;
60344;SDS011;46188;52.324;8.032;2023-03-16T04:43:56;2.92;;;1.85;;
60344;SDS011;46188;52.324;8.032;2023-03-16T04:46:21;7.22;;;2.20;;
60344;SDS011;46188;52.324;8.032;2023-03-16T04:48:48;4.63;;;2.25;;
60344;SDS011;46188;52.324;8.032;2023-03-16T04:51:13;5.20;;;2.50;;
60344;SDS011;46188;52.324;8.032;2023-03-16T04:53:39;4.45;;;2.00;;
60344;SDS011;46188;52.324;8.032;2023-03-16T04:56:04;10.18;;;2.58;;
60344;SDS011;46188;52.324;8.032;2023-03-16T04:58:31;3.90;;;2.42;;
60344;SDS011;46188;52.324;8.032;2023-03-16T05:00:56;4.20;;;2.40;;
60344;SDS011;46188;52.324;8.032;2023-03-16T05:03:21;3.30;;;2.03;;
60344;SDS011;46188;52.324;8.032;2023-03-16T05:05:47;3.72;;;2.50;;
60344;SDS011;46188;52.324;8.032;2023-03-16T05:08:13;7.13;;;2.25;;
60344;SDS011;46188;52.324;8.032;2023-03-16T05:10:38;5.43;;;2.10;;
60344;SDS011;46188;52.324;8.032;2023-03-16T05:13:04;6.05;;;2.22;;
60344;SDS011;46188;52.324;8.032;2023-03-16T05:15:30;7.15;;;2.83;;
60344;SDS011;46188;52.324;8.032;2023-03-16T05:17:55;5.00;;;2.15;;
60344;SDS011;46188;52.324;8.032;2023-03-16T05:20:21;4.85;;;2.72;;
60344;SDS011;46188;52.324;8.032;2023-03-16T05:22:47;3.33;;;1.98;;
60344;SDS011;46188;52.324;8.032;2023-03-16T05:25:14;5.30;;;2.25;;
60344;SDS011;46188;52.324;8.032;2023-03-16T05:27:40;4.53;;;2.08;;
60344;SDS011;46188;52.324;8.032;2023-03-16T05:30:08;4.05;;;2.10;;
60344;SDS011;46188;52.324;8.032;2023-03-16T05:32:34;3.58;;;2.13;;
60344;SDS011;46188;52.324;8.032;2023-03-16T05:34:59;4.90;;;2.55;;
60344;SDS011;46188;52.324;8.032;2023-03-16T05:37:27;4.88;;;2.45;;
60344;SDS011;46188;52.324;8.032;2023-03-16T05:39:52;4.88;;;2.20;;
60344;SDS011;46188;52.324;8.032;2023-03-16T05:42:17;8.57;;;2.90;;
60344;SDS011;46188;52.324;8.032;2023-03-16T05:44:43;4.53;;;2.42;;
60344;SDS011;46188;52.324;8.032;2023-03-16T05:47:09;6.40;;;2.85;;
60344;SDS011;46188;52.324;8.032;2023-03-16T05:49:34;4.80;;;2.38;;
60344;SDS011;46188;52.324;8.032;2023-03-16T05:51:59;3.88;;;2.38;;
60344;SDS011;46188;52.324;8.032;2023-03-16T05:54:24;5.38;;;2.30;;
60344;SDS011;46188;52.324;8.032;2023-03-16T05:56:50;7.57;;;2.70;;
60344;SDS011;46188;52.324;8.032;2023-03-16T05:59:15;4.57;;;2.53;;
60344;SDS011;46188;52.324;8.032;2023-03-16T06:01:42;5.72;;;2.60;;
60344;SDS011;46188;52.324;8.032;2023-03-16T06:04:07;5.30;;;2.45;;
60344;SDS011;46188;52.324;8.032;2023-03-16T06:06:32;5.72;;;2.83;;
60344;SDS011;46188;52.324;8.032;2023-03-16T06:08:57;3.83;;;2.22;;
60344;SDS011;46188;52.324;8.032;2023-03-16T06:11:23;6.07;;;2.30;;
60344;SDS011;46188;52.324;8.032;2023-03-16T06:13:48;7.45;;;2.92;;
60344;SDS011;46188;52.324;8.032;2023-03-16T06:16:13;3.67;;;2.30;;
60344;SDS011;46188;52.324;8.032;2023-03-16T06:18:40;5.78;;;2.45;;
60344;SDS011;46188;52.324;8.032;2023-03-16T06:21:06;9.13;;;2.55;;
60344;SDS011;46188;52.324;8.032;2023-03-16T06:23:31;5.25;;;2.10;;
60344;SDS011;46188;52.324;8.032;2023-03-16T06:25:58;4.35;;;2.53;;
60344;SDS011;46188;52.324;8.032;2023-03-16T06:28:24;5.15;;;2.25;;
60344;SDS011;46188;52.324;8.032;2023-03-16T06:30:53;3.55;;;2.10;;
60344;SDS011;46188;52.324;8.032;2023-03-16T06:33:19;5.47;;;2.17;;
60344;SDS011;46188;52.324;8.032;2023-03-16T06:35:44;4.80;;;2.42;;
60344;SDS011;46188;52.324;8.032;2023-03-16T06:38:12;3.50;;;2.17;;
60344;SDS011;46188;52.324;8.032;2023-03-16T06:40:37;3.72;;;2.40;;
60344;SDS011;46188;52.324;8.032;2023-03-16T06:43:02;7.20;;;2.60;;
60344;SDS011;46188;52.324;8.032;2023-03-16T06:45:27;4.22;;;2.47;;
60344;SDS011;46188;52.324;8.032;2023-03-16T06:47:53;5.22;;;2.22;;
60344;SDS011;46188;52.324;8.032;2023-03-16T06:50:18;3.15;;;1.85;;
60344;SDS011;46188;52.324;8.032;2023-03-16T06:52:43;4.30;;;2.20;;
60344;SDS011;46188;52.324;8.032;2023-03-16T06:55:08;4.93;;;2.45;;
60344;SDS011;46188;52.324;8.032;2023-03-16T06:57:36;3.92;;;2.17;;
60344;SDS011;46188;52.324;8.032;2023-03-16T07:00:01;5.57;;;2.50;;
60344;SDS011;46188;52.324;8.032;2023-03-16T07:02:28;5.20;;;2.00;;
60344;SDS011;46188;52.324;8.032;2023-03-16T07:04:53;4.75;;;2.00;;
60344;SDS011;46188;52.324;8.032;2023-03-16T07:07:18;3.97;;;2.10;;
60344;SDS011;46188;52.324;8.032;2023-03-16T07:09:44;4.22;;;2.08;;
60344;SDS011;46188;52.324;8.032;2023-03-16T07:12:09;6.88;;;2.58;;
60344;SDS011;46188;52.324;8.032;2023-03-16T07:14:35;6.28;;;2.17;;
60344;SDS011;46188;52.324;8.032;2023-03-16T07:17:00;4.78;;;2.30;;
60344;SDS011;46188;52.324;8.032;2023-03-16T07:19:26;4.45;;;2.13;;
60344;SDS011;46188;52.324;8.032;2023-03-16T07:21:52;7.75;;;2.85;;
60344;SDS011;46188;52.324;8.032;2023-03-16T07:24:18;3.88;;;2.35;;
60344;SDS011;46188;52.324;8.032;2023-03-16T07:26:43;5.82;;;2.92;;
60344;SDS011;46188;52.324;8.032;2023-03-16T07:29:10;6.10;;;2.42;;
60344;SDS011;46188;52.324;8.032;2023-03-16T07:31:36;4.43;;;2.30;;
60344;SDS011;46188;52.324;8.032;2023-03-16T07:34:02;5.20;;;2.58;;
60344;SDS011;46188;52.324;8.032;2023-03-16T07:36:28;4.60;;;2.33;;
60344;SDS011;46188;52.324;8.032;2023-03-16T07:38:53;8.55;;;2.50;;
60344;SDS011;46188;52.324;8.032;2023-03-16T07:41:19;4.38;;;2.58;;
60344;SDS011;46188;52.324;8.032;2023-03-16T07:43:45;4.47;;;2.05;;
60344;SDS011;46188;52.324;8.032;2023-03-16T07:46:10;4.45;;;2.60;;
60344;SDS011;46188;52.324;8.032;2023-03-16T07:48:39;4.47;;;2.15;;
60344;SDS011;46188;52.324;8.032;2023-03-16T07:51:06;4.45;;;2.47;;
60344;SDS011;46188;52.324;8.032;2023-03-16T07:53:31;3.40;;;2.05;;
60344;SDS011;46188;52.324;8.032;2023-03-16T07:55:56;3.65;;;2.42;;
60344;SDS011;46188;52.324;8.032;2023-03-16T07:58:22;11.02;;;2.65;;
60344;SDS011;46188;52.324;8.032;2023-03-16T08:00:47;3.30;;;2.22;;
60344;SDS011;46188;52.324;8.032;2023-03-16T08:03:12;6.03;;;2.40;;
60344;SDS011;46188;52.324;8.032;2023-03-16T08:05:38;4.47;;;1.90;;
60344;SDS011;46188;52.324;8.032;2023-03-16T08:08:03;5.60;;;2.00;;
60344;SDS011;46188;52.324;8.032;2023-03-16T08:10:28;4.00;;;2.10;;
60344;SDS011;46188;52.324;8.032;2023-03-16T08:12:54;7.55;;;2.30;;
60344;SDS011;46188;52.324;8.032;2023-03-16T08:15:19;4.57;;;2.40;;
60344;SDS011;46188;52.324;8.032;2023-03-16T08:17:45;6.22;;;2.45;;
60344;SDS011;46188;52.324;8.032;2023-03-16T08:20:11;4.45;;;1.90;;
60344;SDS011;46188;52.324;8.032;2023-03-16T08:22:39;4.53;;;2.28;;
60344;SDS011;46188;52.324;8.032;2023-03-16T08:25:05;3.35;;;1.95;;
60344;SDS011;46188;52.324;8.032;2023-03-16T08:27:34;4.60;;;1.83;;
60344;SDS011;46188;52.324;8.032;2023-03-16T08:29:59;3.22;;;2.20;;
60344;SDS011;46188;52.324;8.032;2023-03-16T08:32:29;5.28;;;1.88;;
60344;SDS011;46188;52.324;8.032;2023-03-16T08:34:54;3.85;;;2.33;;
60344;SDS011;46188;52.324;8.032;2023-03-16T08:37:21;3.35;;;1.67;;
60344;SDS011;46188;52.324;8.032;2023-03-16T08:39:48;3.55;;;1.92;;
60344;SDS011;46188;52.324;8.032;2023-03-16T08:42:15;5.95;;;2.20;;
60344;SDS011;46188;52.324;8.032;2023-03-16T08:44:41;3.28;;;1.85;;
60344;SDS011;46188;52.324;8.032;2023-03-16T08:47:07;3.78;;;2.13;;
60344;SDS011;46188;52.324;8.032;2023-03-16T08:49:32;3.33;;;1.95;;
60344;SDS011;46188;52.324;8.032;2023-03-16T08:51:58;5.90;;;3.40;;
60344;SDS011;46188;52.324;8.032;2023-03-16T08:54:24;3.45;;;2.20;;
60344;SDS011;46188;52.324;8.032;2023-03-16T08:56:49;4.07;;;2.20;;
60344;SDS011;46188;52.324;8.032;2023-03-16T08:59:15;3.40;;;1.95;;
60344;SDS011;46188;52.324;8.032;2023-03-16T09:01:41;5.22;;;2.10;;
60344;SDS011;46188;52.324;8.032;2023-03-16T09:04:06;5.53;;;2.53;;
60344;SDS011;46188;52.324;8.032;2023-03-16T09:06:31;3.40;;;2.13;;
60344;SDS011;46188;52.324;8.032;2023-03-16T09:08:56;4.38;;;2.00;;
60344;SDS011;46188;52.324;8.032;2023-03-16T09:11:22;6.07;;;2.40;;
60344;SDS011;46188;52.324;8.032;2023-03-16T09:13:50;3.78;;;2.13;;
60344;SDS011;46188;52.324;8.032;2023-03-16T09:16:16;6.70;;;3.15;;
60344;SDS011;46188;52.324;8.032;2023-03-16T09:18:41;3.28;;;2.30;;
60344;SDS011;46188;52.324;8.032;2023-03-16T09:21:08;3.50;;;2.10;;
60344;SDS011;46188;52.324;8.032;2023-03-16T09:23:37;4.32;;;2.20;;
60344;SDS011;46188;52.324;8.032;2023-03-16T09:26:03;5.10;;;2.63;;
60344;SDS011;46188;52.324;8.032;2023-03-16T09:28:31;5.70;;;2.30;;
60344;SDS011;46188;52.324;8.032;2023-03-16T09:30:57;3.95;;;2.35;;
60344;SDS011;46188;52.324;8.032;2023-03-16T09:33:23;5.45;;;2.80;;
60344;SDS011;46188;52.324;8.032;2023-03-16T09:35:50;5.18;;;2.33;;
60344;SDS011;46188;52.324;8.032;2023-03-16T09:38:16;5.45;;;2.65;;
60344;SDS011;46188;52.324;8.032;2023-03-16T09:40:42;4.25;;;2.63;;
60344;SDS011;46188;52.324;8.032;2023-03-16T09:43:20;14.32;;;3.25;;
60344;SDS011;46188;52.324;8.032;2023-03-16T09:46:08;4.15;;;2.33;;
60344;SDS011;46188;52.324;8.032;2023-03-16T09:48:38;7.05;;;2.67;;
60344;SDS011;46188;52.324;8.032;2023-03-16T09:51:05;3.88;;;2.53;;
60344;SDS011;46188;52.324;8.032;2023-03-16T09:53:33;4.75;;;2.40;;
60344;SDS011;46188;52.324;8.032;2023-03-16T09:56:07;4.78;;;1.92;;
60344;SDS011;46188;52.324;8.032;2023-03-16T09:58:35;4.13;;;2.45;;
60344;SDS011;46188;52.324;8.032;2023-03-16T10:01:06;4.68;;;2.58;;
60344;SDS011;46188;52.324;8.032;2023-03-16T10:03:50;4.03;;;2.50;;
60344;SDS011;46188;52.324;8.032;2023-03-16T10:06:25;4.60;;;2.33;;
60344;SDS011;46188;52.324;8.032;2023-03-16T10:11:24;3.78;;;2.13;;
60344;SDS011;46188;52.324;8.032;2023-03-16T10:13:58;4.70;;;2.90;;
60344;SDS011;46188;52.324;8.032;2023-03-16T10:16:36;3.83;;;2.40;;
60344;SDS011;46188;52.324;8.032;2023-03-16T10:19:21;3.60;;;2.15;;
60344;SDS011;46188;52.324;8.032;2023-03-16T10:21:56;7.07;;;3.17;;
60344;SDS011;46188;52.324;8.032;2023-03-16T10:24:37;2.97;;;1.98;;
60344;SDS011;46188;52.324;8.032;2023-03-16T10:27:13;3.85;;;2.35;;
60344;SDS011;46188;52.324;8.032;2023-03-16T10:29:44;6.47;;;2.67;;
60344;SDS011;46188;52.324;8.032;2023-03-16T10:32:11;13.98;;;2.65;;
60344;SDS011;46188;52.324;8.032;2023-03-16T10:34:56;4.40;;;2.30;;
60344;SDS011;46188;52.324;8.032;2023-03-16T10:37:26;4.07;;;2.28;;
60344;SDS011;46188;52.324;8.032;2023-03-16T10:39:54;6.60;;;2.80;;
60344;SDS011;46188;52.324;8.032;2023-03-16T10:42:21;5.35;;;2.35;;
60344;SDS011;46188;52.324;8.032;2023-03-16T10:44:47;4.38;;;2.00;;
60344;SDS011;46188;52.324;8.032;2023-03-16T10:47:21;6.20;;;2.72;;
60344;SDS011;46188;52.324;8.032;2023-03-16T10:49:48;3.38;;;2.40;;
60344;SDS011;46188;52.324;8.032;2023-03-16T10:52:19;4.90;;;2.60;;
60344;SDS011;46188;52.324;8.032;2023-03-16T10:55:15;4.00;;;2.20;;
60344;SDS011;46188;52.324;8.032;2023-03-16T10:57:47;6.32;;;2.30;;
60344;SDS011;46188;52.324;8.032;2023-03-16T11:00:32;7.43;;;2.35;;
60344;SDS011;46188;52.324;8.032;2023-03-16T11:03:12;4.15;;;2.33;;
60344;SDS011;46188;52.324;8.032;2023-03-16T11:05:54;12.10;;;2.95;;
60344;SDS011;46188;52.324;8.032;2023-03-16T11:08:22;3.70;;;2.40;;
60344;SDS011;46188;52.324;8.032;2023-03-16T11:10:55;4.15;;;2.40;;
60344;SDS011;46188;52.324;8.032;2023-03-16T11:13:23;4.00;;;2.40;;
60344;SDS011;46188;52.324;8.032;2023-03-16T11:18:31;6.15;;;2.15;;
60344;SDS011;46188;52.324;8.032;2023-03-16T11:21:02;5.65;;;2.40;;
60344;SDS011;46188;52.324;8.032;2023-03-16T11:23:32;13.38;;;3.20;;
60344;SDS011;46188;52.324;8.032;2023-03-16T11:26:02;4.22;;;2.47;;
60344;SDS011;46188;52.324;8.032;2023-03-16T11:28:37;7.53;;;2.25;;
60344;SDS011;46188;52.324;8.032;2023-03-16T11:34:18;5.03;;;2.10;;
60344;SDS011;46188;52.324;8.032;2023-03-16T11:40:10;4.32;;;2.33;;
60344;SDS011;46188;52.324;8.032;2023-03-16T11:45:38;5.13;;;3.03;;
60344;SDS011;46188;52.324;8.032;2023-03-16T11:48:14;9.55;;;3.00;;
60344;SDS011;46188;52.324;8.032;2023-03-16T11:53:44;4.47;;;2.60;;
60344;SDS011;46188;52.324;8.032;2023-03-16T11:56:16;4.63;;;1.95;;
60344;SDS011;46188;52.324;8.032;2023-03-16T12:01:53;3.80;;;2.33;;
60344;SDS011;46188;52.324;8.032;2023-03-16T12:15:50;7.00;;;2.40;;
60344;SDS011;46188;52.324;8.032;2023-03-16T12:18:21;4.07;;;2.40;;
60344;SDS011;46188;52.324;8.032;2023-03-16T12:20:52;5.20;;;2.30;;
60344;SDS011;46188;52.324;8.032;2023-03-16T12:23:26;4.88;;;2.40;;
60344;SDS011;46188;52.324;8.032;2023-03-16T12:25:56;10.55;;;2.30;;
60344;SDS011;46188;52.324;8.032;2023-03-16T12:28:26;7.30;;;3.33;;
60344;SDS011;46188;52.324;8.032;2023-03-16T12:37:05;4.78;;;2.08;;
60344;SDS011;46188;52.324;8.032;2023-03-16T12:40:37;3.08;;;1.80;;
60344;SDS011;46188;52.324;8.032;2023-03-16T12:45:21;7.45;;;2.15;;
60344;SDS011;46188;52.324;8.032;2023-03-16T12:50:52;4.22;;;1.85;;
60344;SDS011;46188;52.324;8.032;2023-03-16T12:56:08;3.40;;;2.10;;
60344;SDS011;46188;52.324;8.032;2023-03-16T12:58:39;5.22;;;2.50;;
60344;SDS011;46188;52.324;8.032;2023-03-16T13:01:08;2.95;;;2.05;;
60344;SDS011;46188;52.324;8.032;2023-03-16T13:03:35;3.78;;;2.22;;
60344;SDS011;46188;52.324;8.032;2023-03-16T13:06:02;4.38;;;2.88;;
60344;SDS011;46188;52.324;8.032;2023-03-16T13:08:27;6.55;;;1.85;;
60344;SDS011;46188;52.324;8.032;2023-03-16T13:11:09;5.63;;;2.40;;
60344;SDS011;46188;52.324;8.032;2023-03-16T13:13:46;5.18;;;2.10;;
60344;SDS011;46188;52.324;8.032;2023-03-16T13:16:24;4.28;;;2.00;;
60344;SDS011;46188;52.324;8.032;2023-03-16T13:18:52;3.65;;;2.38;;
60344;SDS011;46188;52.324;8.032;2023-03-16T13:21:20;5.30;;;2.50;;
60344;SDS011;46188;52.324;8.032;2023-03-16T13:23:58;3.70;;;2.33;;
60344;SDS011;46188;52.324;8.032;2023-03-16T13:29:25;4.15;;;2.58;;
60344;SDS011;46188;52.324;8.032;2023-03-16T13:31:53;3.92;;;2.33;;
60344;SDS011;46188;52.324;8.032;2023-03-16T13:34:28;3.88;;;2.17;;
60344;SDS011;46188;52.324;8.032;2023-03-16T13:36:56;5.28;;;2.25;;
60344;SDS011;46188;52.324;8.032;2023-03-16T13:39:24;3.03;;;2.17;;
60344;SDS011;46188;52.324;8.032;2023-03-16T13:44:21;5.53;;;2.53;;
60344;SDS011;46188;52.324;8.032;2023-03-16T13:46:48;3.60;;;1.92;;
60344;SDS011;46188;52.324;8.032;2023-03-16T13:49:14;5.43;;;2.17;;
60344;SDS011;46188;52.324;8.032;2023-03-16T13:51:40;3.95;;;2.00;;
60344;SDS011;46188;52.324;8.032;2023-03-16T13:56:48;5.57;;;2.13;;
60344;SDS011;46188;52.324;8.032;2023-03-16T13:59:14;4.40;;;1.92;;
60344;SDS011;46188;52.324;8.032;2023-03-16T14:01:42;3.15;;;1.73;;
60344;SDS011;46188;52.324;8.032;2023-03-16T14:04:09;2.97;;;1.88;;
60344;SDS011;46188;52.324;8.032;2023-03-16T14:06:37;3.30;;;1.90;;
60344;SDS011;46188;52.324;8.032;2023-03-16T14:09:05;4.65;;;1.70;;
60344;SDS011;46188;52.324;8.032;2023-03-16T14:11:39;5.55;;;2.10;;
60344;SDS011;46188;52.324;8.032;2023-03-16T14:14:13;3.63;;;2.00;;
60344;SDS011;46188;52.324;8.032;2023-03-16T14:16:40;3.92;;;2.25;;
60344;SDS011;46188;52.324;8.032;2023-03-16T14:19:16;2.60;;;1.60;;
60344;SDS011;46188;52.324;8.032;2023-03-16T14:21:44;3.15;;;1.80;;
60344;SDS011;46188;52.324;8.032;2023-03-16T14:26:54;3.45;;;2.10;;
60344;SDS011;46188;52.324;8.032;2023-03-16T14:29:22;4.35;;;1.80;;
60344;SDS011;46188;52.324;8.032;2023-03-16T14:31:50;4.10;;;2.03;;
60344;SDS011;46188;52.324;8.032;2023-03-16T14:37:11;2.67;;;1.73;;
60344;SDS011;46188;52.324;8.032;2023-03-16T14:39:38;4.90;;;1.88;;
60344;SDS011;46188;52.324;8.032;2023-03-16T14:42:05;3.47;;;1.98;;
60344;SDS011;46188;52.324;8.032;2023-03-16T14:44:39;5.15;;;1.88;;
60344;SDS011;46188;52.324;8.032;2023-03-16T14:47:04;4.63;;;2.75;;
60344;SDS011;46188;52.324;8.032;2023-03-16T14:49:31;3.72;;;1.95;;
60344;SDS011;46188;52.324;8.032;2023-03-16T14:52:00;3.28;;;1.65;;
60344;SDS011;46188;52.324;8.032;2023-03-16T14:54:28;4.03;;;2.05;;
60344;SDS011;46188;52.324;8.032;2023-03-16T14:56:57;2.33;;;1.67;;
60344;SDS011;46188;52.324;8.032;2023-03-16T14:59:24;3.25;;;2.05;;
60344;SDS011;46188;52.324;8.032;2023-03-16T15:01:50;2.53;;;1.90;;
60344;SDS011;46188;52.324;8.032;2023-03-16T15:04:18;3.08;;;2.05;;
60344;SDS011;46188;52.324;8.032;2023-03-16T15:06:49;3.45;;;2.03;;
60344;SDS011;46188;52.324;8.032;2023-03-16T15:09:34;2.97;;;2.03;;
60344;SDS011;46188;52.324;8.032;2023-03-16T15:12:02;3.00;;;1.77;;
60344;SDS011;46188;52.324;8.032;2023-03-16T15:14:28;3.97;;;2.28;;
60344;SDS011;46188;52.324;8.032;2023-03-16T15:17:12;3.35;;;1.60;;
60344;SDS011;46188;52.324;8.032;2023-03-16T15:19:39;3.33;;;2.10;;
60344;SDS011;46188;52.324;8.032;2023-03-16T15:22:05;3.78;;;2.17;;
60344;SDS011;46188;52.324;8.032;2023-03-16T15:24:30;5.10;;;1.90;;
60344;SDS011;46188;52.324;8.032;2023-03-16T15:26:57;2.70;;;1.73;;
60344;SDS011;46188;52.324;8.032;2023-03-16T15:29:22;3.47;;;1.92;;
60344;SDS011;46188;52.324;8.032;2023-03-16T15:31:48;4.80;;;2.08;;
60344;SDS011;46188;52.324;8.032;2023-03-16T15:34:13;3.42;;;1.95;;
60344;SDS011;46188;52.324;8.032;2023-03-16T15:36:38;2.80;;;2.10;;
60344;SDS011;46188;52.324;8.032;2023-03-16T15:39:04;4.47;;;2.53;;
60344;SDS011;46188;52.324;8.032;2023-03-16T15:41:32;2.75;;;2.00;;
60344;SDS011;46188;52.324;8.032;2023-03-16T15:43:57;8.43;;;2.30;;
60344;SDS011;46188;52.324;8.032;2023-03-16T15:46:25;3.00;;;1.65;;
60344;SDS011;46188;52.324;8.032;2023-03-16T15:48:50;4.60;;;2.13;;
60344;SDS011;46188;52.324;8.032;2023-03-16T15:51:20;2.90;;;1.90;;
60344;SDS011;46188;52.324;8.032;2023-03-16T15:53:50;2.60;;;1.90;;
60344;SDS011;46188;52.324;8.032;2023-03-16T15:56:19;3.47;;;2.00;;
60344;SDS011;46188;52.324;8.032;2023-03-16T15:58:50;3.13;;;1.70;;